Time;durP1;ratioP1;P1;durP2;ratioP2;P2;SDS_P1;SDS_P2;PMS_P1;PMS_P2;Temp;Humidity;BMP_temperature;BMP_pressure;BME280_temperature;BME280_humidity;BME280_pressure;Samples;Min_cycle;Max_cycle;Signal;HPM_P1;HPM_P2
2023/06/15 00:01:35;;;;;;;5.18;3.33;;;19.10;99.90;;;;;;5055490;28;20208;-87
2023/06/15 00:04:02;;;;;;;4.53;3.55;;;19.10;99.90;;;;;;5055588;28;20209;-89
2023/06/15 00:06:29;;;;;;;6.25;3.20;;;19.10;99.90;;;;;;5055620;28;20214;-86
2023/06/15 00:08:56;;;;;;;4.97;3.70;;;19.00;99.90;;;;;;5055267;28;20228;-86
2023/06/15 00:11:23;;;;;;;5.80;3.50;;;19.10;99.90;;;;;;5054759;28;20571;-86
2023/06/15 00:13:51;;;;;;;4.07;3.03;;;19.10;99.90;;;;;;5055216;28;20593;-88
2023/06/15 00:16:19;;;;;;;3.88;3.35;;;19.00;99.90;;;;;;5055632;28;20209;-86
2023/06/15 00:18:47;;;;;;;4.68;3.20;;;18.90;99.90;;;;;;5054878;28;20226;-85
2023/06/15 00:21:16;;;;;;;5.05;3.15;;;18.90;99.90;;;;;;5053428;28;20202;-87
2023/06/15 00:23:43;;;;;;;5.03;3.13;;;18.90;99.90;;;;;;5055127;28;20535;-87
2023/06/15 00:26:09;;;;;;;6.57;3.38;;;18.90;99.90;;;;;;5054496;28;20567;-87
2023/06/15 00:28:36;;;;;;;5.65;3.35;;;18.80;99.90;;;;;;5055151;28;20504;-87
2023/06/15 00:31:05;;;;;;;5.65;3.78;;;18.80;99.90;;;;;;5054450;28;20312;-83
2023/06/15 00:33:32;;;;;;;4.70;3.45;;;18.80;99.90;;;;;;5054606;28;20197;-86
2023/06/15 00:35:59;;;;;;;4.72;3.92;;;18.70;99.90;;;;;;5054049;28;20228;-87
2023/06/15 00:38:26;;;;;;;4.40;3.38;;;18.70;99.90;;;;;;5054094;28;20198;-87
2023/06/15 00:40:53;;;;;;;4.95;3.35;;;18.70;99.90;;;;;;5053952;28;20234;-87
2023/06/15 00:43:20;;;;;;;5.47;3.30;;;18.70;99.90;;;;;;5053856;28;20641;-87
2023/06/15 00:45:47;;;;;;;3.67;3.38;;;18.60;99.90;;;;;;5053634;28;20247;-86
2023/06/15 00:48:16;;;;;;;5.72;3.50;;;18.60;99.90;;;;;;5054179;28;20216;-87
2023/06/15 00:50:44;;;;;;;5.15;3.55;;;18.60;99.90;;;;;;5054695;28;20582;-87
2023/06/15 00:53:11;;;;;;;3.60;3.30;;;18.50;99.90;;;;;;5054887;28;20186;-88
2023/06/15 00:55:40;;;;;;;4.03;3.63;;;18.50;99.90;;;;;;5054868;28;20198;-88
2023/06/15 00:58:07;;;;;;;4.93;3.85;;;18.50;99.90;;;;;;5054055;28;20234;-86
2023/06/15 01:00:37;;;;;;;4.80;3.15;;;18.40;99.90;;;;;;5053564;28;20267;-86
2023/06/15 01:03:06;;;;;;;4.55;3.60;;;18.40;99.90;;;;;;5053950;28;20251;-86
2023/06/15 01:05:34;;;;;;;8.13;3.53;;;18.40;99.90;;;;;;5054251;28;20208;-87
2023/06/15 01:08:04;;;;;;;7.38;3.95;;;18.40;99.90;;;;;;5053981;28;20198;-87
2023/06/15 01:10:32;;;;;;;4.90;3.30;;;18.30;99.90;;;;;;5053956;28;20197;-87
2023/06/15 01:13:00;;;;;;;6.03;3.65;;;18.20;99.90;;;;;;5054188;28;20533;-87
2023/06/15 01:15:28;;;;;;;3.75;3.17;;;18.20;99.90;;;;;;5053386;28;20208;-88
2023/06/15 01:17:59;;;;;;;4.53;3.50;;;18.30;99.90;;;;;;5054080;28;20373;-87
2023/06/15 01:20:30;;;;;;;5.18;3.33;;;18.20;99.90;;;;;;5053731;28;20217;-88
2023/06/15 01:23:10;;;;;;;8.60;3.70;;;18.20;99.90;;;;;;5054111;28;20212;-88
2023/06/15 01:25:42;;;;;;;5.03;3.10;;;18.20;99.90;;;;;;5054227;28;20224;-88
2023/06/15 01:28:11;;;;;;;4.72;3.08;;;18.20;99.90;;;;;;5053680;28;20256;-88
2023/06/15 01:30:41;;;;;;;4.90;3.60;;;18.10;99.90;;;;;;5054261;28;20222;-88
2023/06/15 01:33:08;;;;;;;6.15;3.13;;;18.20;99.90;;;;;;5054228;28;20418;-88
2023/06/15 01:35:36;;;;;;;5.63;3.42;;;18.10;99.90;;;;;;5053987;28;20634;-88
2023/06/15 01:38:03;;;;;;;4.53;2.83;;;18.20;99.90;;;;;;5054593;28;20279;-88
2023/06/15 01:40:31;;;;;;;4.90;3.30;;;18.10;99.90;;;;;;5058220;28;20312;-86
2023/06/15 01:42:59;;;;;;;3.83;3.53;;;18.10;99.90;;;;;;5056934;28;20280;-87
2023/06/15 01:45:30;;;;;;;4.15;3.40;;;18.10;99.90;;;;;;5057918;28;20206;-87
2023/06/15 01:47:58;;;;;;;7.93;3.25;;;18.10;99.90;;;;;;5058389;28;20274;-88
2023/06/15 01:50:25;;;;;;;4.13;3.42;;;18.00;99.90;;;;;;5057913;28;20190;-87
2023/06/15 01:52:52;;;;;;;4.57;2.75;;;18.00;99.90;;;;;;5057976;28;20209;-87
2023/06/15 01:55:20;;;;;;;3.78;3.33;;;18.00;99.90;;;;;;5057541;28;20209;-87
2023/06/15 01:57:47;;;;;;;5.43;3.10;;;18.00;99.90;;;;;;5057598;28;20209;-87
2023/06/15 02:00:15;;;;;;;3.58;3.08;;;18.00;99.90;;;;;;5051269;28;20293;-87
2023/06/15 02:02:43;;;;;;;3.92;3.00;;;18.00;99.90;;;;;;5037755;28;20211;-88
2023/06/15 02:05:11;;;;;;;4.60;3.10;;;17.90;99.90;;;;;;5043209;28;20894;-87
2023/06/15 02:07:38;;;;;;;4.57;3.42;;;17.90;99.90;;;;;;5057617;28;20202;-86
2023/06/15 02:10:06;;;;;;;4.30;3.13;;;17.90;99.90;;;;;;5056969;28;20685;-88
2023/06/15 02:12:33;;;;;;;3.53;3.22;;;17.80;99.90;;;;;;5057998;28;20278;-87
2023/06/15 02:15:02;;;;;;;4.57;3.90;;;17.80;99.90;;;;;;5057468;28;20484;-86
2023/06/15 02:17:30;;;;;;;5.13;3.75;;;17.80;99.90;;;;;;5037633;28;20199;-86
2023/06/15 02:19:59;;;;;;;5.03;3.10;;;17.70;99.90;;;;;;5037687;28;20596;-87
2023/06/15 02:22:26;;;;;;;5.07;3.95;;;17.60;99.90;;;;;;5038357;28;20222;-86
2023/06/15 02:24:53;;;;;;;5.15;4.13;;;17.60;99.90;;;;;;5057823;28;20202;-85
2023/06/15 02:27:20;;;;;;;7.05;4.30;;;17.50;99.90;;;;;;5037926;28;20206;-86
2023/06/15 02:29:46;;;;;;;4.50;3.63;;;17.40;99.90;;;;;;5037902;28;20194;-87
2023/06/15 02:32:34;;;;;;;4.45;4.03;;;17.30;99.90;;;;;;5037363;28;20238;-88
2023/06/15 02:35:06;;;;;;;6.72;4.32;;;17.20;99.90;;;;;;5047579;28;20202;-87
2023/06/15 02:37:33;;;;;;;5.03;4.03;;;17.10;99.90;;;;;;5057024;28;20201;-88
2023/06/15 02:39:59;;;;;;;6.15;4.75;;;17.10;99.90;;;;;;5055710;28;20232;-86
2023/06/15 02:42:26;;;;;;;6.47;4.53;;;17.00;99.90;;;;;;5056341;28;20223;-87
2023/06/15 02:44:53;;;;;;;9.40;4.93;;;16.90;99.90;;;;;;5056839;28;20446;-86
2023/06/15 02:47:20;;;;;;;4.97;4.47;;;16.90;99.90;;;;;;5057109;28;20547;-87
2023/06/15 02:49:47;;;;;;;4.43;4.03;;;16.80;99.90;;;;;;5056867;28;20194;-86
2023/06/15 02:52:15;;;;;;;6.40;3.95;;;16.80;99.90;;;;;;5044094;28;20626;-86
2023/06/15 02:54:42;;;;;;;6.25;4.40;;;16.70;99.90;;;;;;5037304;28;20194;-84
2023/06/15 02:57:09;;;;;;;6.80;5.25;;;16.70;99.90;;;;;;5037302;28;20277;-86
2023/06/15 02:59:37;;;;;;;4.97;4.28;;;16.70;99.90;;;;;;5038778;28;20226;-86
2023/06/15 03:02:05;;;;;;;6.85;4.47;;;16.60;99.90;;;;;;5056747;28;20202;-85
2023/06/15 03:04:32;;;;;;;5.10;4.43;;;16.60;99.90;;;;;;5056300;28;20305;-86
2023/06/15 03:06:59;;;;;;;5.25;4.30;;;16.50;99.90;;;;;;5056157;28;20277;-87
2023/06/15 03:09:28;;;;;;;6.70;4.38;;;16.50;99.90;;;;;;5049245;28;20272;-86
2023/06/15 03:11:55;;;;;;;6.18;5.00;;;16.50;99.90;;;;;;5036737;28;20213;-87
2023/06/15 03:14:22;;;;;;;7.80;4.80;;;16.50;99.90;;;;;;5036467;28;20277;-87
2023/06/15 03:16:48;;;;;;;4.97;4.53;;;16.40;99.90;;;;;;5037141;28;20205;-85
2023/06/15 03:19:16;;;;;;;8.38;4.53;;;16.50;99.90;;;;;;5036642;28;20277;-86
2023/06/15 03:21:43;;;;;;;7.22;4.13;;;16.40;99.90;;;;;;5042251;28;20226;-84
2023/06/15 03:24:10;;;;;;;5.78;4.55;;;16.40;99.90;;;;;;5036550;28;20588;-86
2023/06/15 03:26:39;;;;;;;8.05;4.35;;;16.40;99.90;;;;;;5036314;28;20286;-85
2023/06/15 03:29:06;;;;;;;5.85;4.13;;;16.40;99.90;;;;;;5036067;28;20198;-86
2023/06/15 03:31:40;;;;;;;5.47;3.92;;;16.40;99.90;;;;;;5044951;28;20242;-86
2023/06/15 03:34:07;;;;;;;4.30;3.90;;;16.40;99.90;;;;;;5056410;28;20215;-83
2023/06/15 03:36:35;;;;;;;7.32;4.43;;;16.40;99.90;;;;;;5056103;28;20203;-86
2023/06/15 03:39:03;;;;;;;4.40;4.00;;;16.40;99.90;;;;;;5055982;28;20224;-85
2023/06/15 03:41:30;;;;;;;5.97;4.80;;;16.40;99.90;;;;;;5054738;28;20230;-85
2023/06/15 03:43:58;;;;;;;6.30;4.07;;;16.40;99.90;;;;;;5055848;28;20201;-85
2023/06/15 03:46:25;;;;;;;5.40;4.63;;;16.40;99.90;;;;;;5056225;28;20296;-85
2023/06/15 03:48:52;;;;;;;6.47;5.20;;;16.40;99.90;;;;;;5055680;28;20771;-87
2023/06/15 03:51:19;;;;;;;6.13;4.57;;;16.40;99.90;;;;;;5055619;28;20496;-85
2023/06/15 03:53:46;;;;;;;5.53;4.53;;;16.40;99.90;;;;;;5055356;28;20541;-86
2023/06/15 03:56:13;;;;;;;5.30;4.45;;;16.40;99.90;;;;;;5055389;28;20735;-86
2023/06/15 03:58:40;;;;;;;6.22;4.32;;;16.40;99.90;;;;;;5054822;28;20962;-85
2023/06/15 04:01:08;;;;;;;5.20;4.18;;;16.40;99.90;;;;;;5054475;28;20218;-85
2023/06/15 04:03:35;;;;;;;8.02;4.70;;;16.40;99.90;;;;;;5054915;28;20626;-86
2023/06/15 04:06:05;;;;;;;8.48;5.50;;;16.40;99.90;;;;;;5054775;28;20221;-86
2023/06/15 04:08:32;;;;;;;6.43;5.15;;;16.40;99.90;;;;;;5055923;28;20676;-85
2023/06/15 04:10:59;;;;;;;6.00;4.47;;;16.50;99.90;;;;;;5054921;28;20208;-85
2023/06/15 04:13:27;;;;;;;6.50;4.72;;;16.50;99.90;;;;;;5055684;28;20209;-86
2023/06/15 04:15:54;;;;;;;4.68;4.13;;;16.60;99.90;;;;;;5054993;28;20674;-86
2023/06/15 04:18:23;;;;;;;7.18;5.40;;;16.60;99.90;;;;;;5055435;28;20198;-85
2023/06/15 04:20:51;;;;;;;6.55;4.75;;;16.70;99.90;;;;;;5054948;28;20630;-84
2023/06/15 04:23:18;;;;;;;5.20;3.85;;;16.70;99.90;;;;;;5055276;28;20221;-85
2023/06/15 04:25:45;;;;;;;6.97;4.00;;;16.80;99.90;;;;;;5054880;28;20202;-85
2023/06/15 04:28:12;;;;;;;5.70;4.28;;;16.80;99.90;;;;;;5046090;28;20210;-86
2023/06/15 04:30:40;;;;;;;4.38;3.97;;;16.90;99.90;;;;;;5034728;28;20315;-85
2023/06/15 04:33:12;;;;;;;7.50;4.45;;;17.00;99.90;;;;;;5035091;28;20241;-86
2023/06/15 04:35:45;;;;;;;7.47;4.95;;;17.10;99.90;;;;;;5035427;28;20194;-83
2023/06/15 04:38:12;;;;;;;6.05;4.28;;;17.10;99.90;;;;;;5033639;28;20421;-85
2023/06/15 04:40:41;;;;;;;5.13;4.00;;;17.10;99.90;;;;;;5045908;28;20276;-85
2023/06/15 04:43:08;;;;;;;4.70;3.83;;;17.10;99.90;;;;;;5053745;28;20197;-85
2023/06/15 04:45:35;;;;;;;9.07;4.63;;;17.20;99.90;;;;;;5053915;28;20648;-85
2023/06/15 04:48:02;;;;;;;4.28;3.88;;;17.20;99.90;;;;;;5052824;28;20285;-86
2023/06/15 04:50:31;;;;;;;4.90;4.00;;;17.20;99.90;;;;;;5053900;28;20206;-86
2023/06/15 04:52:59;;;;;;;8.93;4.68;;;17.30;99.90;;;;;;5053391;28;20617;-84
2023/06/15 04:55:26;;;;;;;7.55;4.88;;;17.40;99.90;;;;;;5053352;28;20862;-82
2023/06/15 04:57:53;;;;;;;5.75;4.68;;;17.50;99.90;;;;;;5053851;28;20206;-86
2023/06/15 05:00:21;;;;;;;6.75;4.35;;;17.60;99.90;;;;;;5052225;28;20249;-86
2023/06/15 05:02:48;;;;;;;5.90;4.03;;;17.80;99.90;;;;;;5053581;28;20256;-83
2023/06/15 05:05:15;;;;;;;5.93;3.95;;;18.00;99.90;;;;;;5052865;28;20198;-85
2023/06/15 05:07:42;;;;;;;5.90;4.18;;;18.20;99.90;;;;;;5052734;28;20217;-86
2023/06/15 05:10:10;;;;;;;6.10;4.10;;;18.50;99.90;;;;;;5053878;28;20308;-85
2023/06/15 05:12:37;;;;;;;8.45;4.60;;;18.80;99.90;;;;;;5052787;28;20595;-85
2023/06/15 05:15:05;;;;;;;7.28;4.30;;;19.20;99.90;;;;;;5052357;28;20494;-86
2023/06/15 05:17:32;;;;;;;8.23;4.72;;;19.50;99.90;;;;;;5054069;28;20202;-83
2023/06/15 05:19:58;;;;;;;6.55;4.63;;;19.90;99.90;;;;;;5052765;28;20590;-85
2023/06/15 05:22:25;;;;;;;7.60;3.72;;;20.20;99.90;;;;;;5049421;28;20210;-86
2023/06/15 05:24:52;;;;;;;6.30;3.97;;;20.40;99.90;;;;;;5034211;28;20237;-86
2023/06/15 05:27:20;;;;;;;5.35;3.72;;;20.70;99.90;;;;;;5034418;28;20289;-87
2023/06/15 05:29:47;;;;;;;4.90;3.90;;;21.10;99.90;;;;;;5040637;28;20300;-86
2023/06/15 05:32:14;;;;;;;6.82;4.18;;;21.30;99.90;;;;;;5054333;28;20320;-85
2023/06/15 05:34:41;;;;;;;5.38;3.40;;;21.70;99.90;;;;;;5054429;28;20247;-86
2023/06/15 05:37:08;;;;;;;4.10;3.20;;;21.90;99.90;;;;;;5054592;28;20202;-86
2023/06/15 05:39:35;;;;;;;5.32;3.33;;;22.10;99.90;;;;;;5053956;28;20288;-86
2023/06/15 05:42:02;;;;;;;5.25;3.70;;;22.30;99.90;;;;;;5053194;28;20519;-86
2023/06/15 05:44:30;;;;;;;4.80;3.10;;;22.60;99.90;;;;;;5053936;28;20208;-84
2023/06/15 05:46:57;;;;;;;6.90;3.47;;;22.80;99.90;;;;;;5073989;28;20201;-84
2023/06/15 05:49:25;;;;;;;5.18;3.72;;;23.00;99.90;;;;;;5073556;28;20202;-86
2023/06/15 05:51:52;;;;;;;4.60;3.20;;;23.00;99.90;;;;;;5063432;28;20229;-87
2023/06/15 05:54:20;;;;;;;3.20;2.90;;;23.20;99.90;;;;;;5054385;28;20205;-88
2023/06/15 05:56:47;;;;;;;5.88;3.60;;;23.50;99.90;;;;;;5053344;28;20292;-83
2023/06/15 05:59:14;;;;;;;6.32;3.65;;;23.80;99.90;;;;;;5052797;28;20217;-85
2023/06/15 06:01:42;;;;;;;7.47;3.90;;;23.70;99.90;;;;;;5054037;28;20226;-87
2023/06/15 06:04:10;;;;;;;5.57;3.22;;;23.90;99.90;;;;;;5053998;28;20202;-86
2023/06/15 06:06:37;;;;;;;4.68;2.92;;;24.00;99.90;;;;;;5053602;28;20210;-84
2023/06/15 06:09:04;;;;;;;6.03;3.50;;;24.20;99.90;;;;;;5054001;28;20253;-88
2023/06/15 06:11:30;;;;;;;3.75;3.40;;;24.30;99.90;;;;;;5053967;28;20216;-85
2023/06/15 06:13:57;;;;;;;8.45;3.92;;;24.50;99.90;;;;;;5054006;28;20198;-86
2023/06/15 06:16:25;;;;;;;5.93;3.22;;;24.60;99.90;;;;;;5053716;28;20202;-85
2023/06/15 06:18:53;;;;;;;5.40;3.40;;;24.80;99.90;;;;;;5053431;28;20253;-83
2023/06/15 06:21:20;;;;;;;3.65;2.90;;;24.80;99.90;;;;;;5052630;28;20230;-86
2023/06/15 06:23:47;;;;;;;4.22;3.05;;;25.00;99.90;;;;;;5053237;28;20194;-85
2023/06/15 06:26:14;;;;;;;4.80;3.13;;;25.20;99.90;;;;;;5056540;28;20209;-86
2023/06/15 06:28:40;;;;;;;5.15;3.03;;;25.40;99.90;;;;;;5056805;28;20281;-87
2023/06/15 06:31:07;;;;;;;7.93;3.83;;;25.60;99.90;;;;;;5056876;28;20295;-84
2023/06/15 06:33:37;;;;;;;5.88;3.40;;;25.60;99.90;;;;;;5056750;28;20202;-85
2023/06/15 06:36:08;;;;;;;3.80;2.90;;;25.70;99.90;;;;;;5057064;28;20208;-86
2023/06/15 06:38:35;;;;;;;3.78;2.95;;;25.90;99.90;;;;;;5056491;28;20230;-83
2023/06/15 06:41:01;;;;;;;6.40;3.55;;;26.00;99.90;;;;;;5056457;28;20660;-85
2023/06/15 06:43:28;;;;;;;6.25;3.25;;;26.00;99.90;;;;;;5057010;28;20198;-86
2023/06/15 06:45:55;;;;;;;4.78;3.10;;;25.90;99.90;;;;;;5056493;28;20285;-88
2023/06/15 06:48:22;;;;;;;4.97;3.10;;;26.00;99.90;;;;;;5056778;28;20202;-87
2023/06/15 06:50:49;;;;;;;4.38;3.00;;;26.00;99.90;;;;;;5056627;28;20272;-87
2023/06/15 06:53:18;;;;;;;6.25;3.25;;;26.30;99.90;;;;;;5052771;28;20716;-86
2023/06/15 06:55:45;;;;;;;4.68;3.22;;;26.40;99.90;;;;;;5056523;28;20301;-85
2023/06/15 06:58:12;;;;;;;7.97;3.72;;;26.70;99.90;;;;;;5066625;28;20205;-88
2023/06/15 07:00:39;;;;;;;5.93;2.60;;;26.90;99.90;;;;;;5063898;28;20210;-86
2023/06/15 07:03:06;;;;;;;4.72;2.78;;;27.40;99.90;;;;;;5050673;28;20674;-87
2023/06/15 07:05:33;;;;;;;5.22;3.47;;;27.50;99.90;;;;;;5051014;28;20202;-83
2023/06/15 07:08:00;;;;;;;6.97;3.97;;;27.50;99.90;;;;;;5045881;28;20204;-83
2023/06/15 07:10:28;;;;;;;4.82;3.33;;;27.40;99.90;;;;;;5058346;28;20240;-85
2023/06/15 07:12:56;;;;;;;5.03;3.28;;;27.30;99.90;;;;;;5056145;28;20195;-88
2023/06/15 07:15:23;;;;;;;4.55;3.58;;;27.00;99.90;;;;;;5056370;28;20212;-83
2023/06/15 07:17:50;;;;;;;7.93;3.70;;;27.20;99.90;;;;;;5055461;28;20236;-86
2023/06/15 07:20:17;;;;;;;5.53;3.22;;;27.20;99.90;;;;;;5054498;28;20208;-81
2023/06/15 07:22:44;;;;;;;4.53;4.00;;;27.10;99.90;;;;;;5056175;28;20224;-88
2023/06/15 07:25:11;;;;;;;4.68;3.22;;;27.00;99.90;;;;;;5055103;28;20288;-86
2023/06/15 07:27:39;;;;;;;4.88;3.45;;;26.90;99.90;;;;;;5056044;28;20289;-85
2023/06/15 07:30:08;;;;;;;5.32;3.20;;;26.90;99.90;;;;;;5055238;28;20206;-83
2023/06/15 07:32:35;;;;;;;6.60;3.67;;;27.00;99.90;;;;;;5052016;28;20244;-86
2023/06/15 07:35:02;;;;;;;7.43;3.63;;;27.10;99.90;;;;;;5054493;28;20288;-83
2023/06/15 07:37:29;;;;;;;5.95;4.13;;;26.70;99.90;;;;;;5053959;28;20225;-85
2023/06/15 07:39:55;;;;;;;6.55;4.03;;;26.70;99.90;;;;;;5056086;28;20197;-87
2023/06/15 07:42:22;;;;;;;6.13;3.90;;;26.80;99.90;;;;;;5050622;28;20601;-87
2023/06/15 07:44:50;;;;;;;5.38;3.42;;;26.80;99.90;;;;;;5041585;28;20209;-89
2023/06/15 07:47:17;;;;;;;8.57;3.47;;;27.10;99.90;;;;;;5036402;28;20599;-88
2023/06/15 07:49:45;;;;;;;5.13;3.80;;;27.50;99.90;;;;;;5036189;28;20286;-87
2023/06/15 07:52:11;;;;;;;7.85;4.93;;;27.70;99.90;;;;;;5049378;28;20237;-87
2023/06/15 07:54:40;;;;;;;6.75;3.33;;;27.40;99.90;;;;;;5053288;28;20208;-87
2023/06/15 07:57:07;;;;;;;3.67;3.28;;;27.40;99.90;;;;;;5054815;28;20210;-89
2023/06/15 07:59:34;;;;;;;4.25;3.85;;;27.40;99.90;;;;;;5055600;28;20822;-89
2023/06/15 08:02:02;;;;;;;6.70;3.85;;;27.40;99.90;;;;;;5055231;28;20229;-81
2023/06/15 08:04:29;;;;;;;5.07;3.47;;;27.60;99.90;;;;;;5055283;28;20546;-88
2023/06/15 08:06:56;;;;;;;6.00;4.00;;;27.70;99.90;;;;;;5055246;28;20594;-80
2023/06/15 08:09:23;;;;;;;4.40;3.78;;;27.90;99.90;;;;;;5054831;28;20313;-86
2023/06/15 08:11:50;;;;;;;8.48;3.67;;;27.90;99.90;;;;;;5052744;28;20204;-86
2023/06/15 08:14:19;;;;;;;5.55;4.10;;;28.00;99.90;;;;;;5055085;28;20225;-87
2023/06/15 08:16:46;;;;;;;6.68;3.70;;;27.90;99.90;;;;;;5054720;28;20217;-86
2023/06/15 08:19:14;;;;;;;3.83;3.35;;;28.20;99.90;;;;;;5055278;28;20217;-87
2023/06/15 08:21:41;;;;;;;6.07;3.92;;;27.90;99.90;;;;;;5055202;28;20657;-89
2023/06/15 08:24:08;;;;;;;5.28;3.55;;;27.90;99.90;;;;;;5048380;28;20234;-84
2023/06/15 08:26:35;;;;;;;3.92;3.55;;;28.00;99.90;;;;;;5035272;28;20282;-88
2023/06/15 08:29:02;;;;;;;6.32;3.85;;;28.10;99.90;;;;;;5035908;28;20214;-88
2023/06/15 08:31:30;;;;;;;4.20;3.50;;;28.50;99.90;;;;;;5035100;28;20235;-87
2023/06/15 08:33:57;;;;;;;5.55;3.42;;;28.50;99.90;;;;;;5041171;28;20221;-89
2023/06/15 08:36:25;;;;;;;5.97;3.28;;;28.80;99.90;;;;;;5055120;28;20292;-89
2023/06/15 08:38:52;;;;;;;7.47;4.15;;;29.00;99.90;;;;;;5055104;28;20271;-85
2023/06/15 08:41:20;;;;;;;6.22;3.85;;;29.10;99.90;;;;;;5054170;28;20284;-85
2023/06/15 08:43:50;;;;;;;6.40;3.75;;;29.10;99.90;;;;;;5054295;28;20201;-90
2023/06/15 08:46:17;;;;;;;5.93;3.88;;;29.00;99.90;;;;;;5055151;28;20256;-87
2023/06/15 08:48:48;;;;;;;7.45;4.13;;;29.20;99.90;;;;;;5054448;28;20212;-87
2023/06/15 08:51:15;;;;;;;9.63;3.38;;;29.40;99.90;;;;;;5054469;28;20198;-85
2023/06/15 08:53:45;;;;;;;5.35;3.40;;;29.40;99.90;;;;;;5055030;28;20273;-89
2023/06/15 08:56:12;;;;;;;5.57;3.40;;;29.50;99.90;;;;;;5054085;28;20213;-87
2023/06/15 08:58:40;;;;;;;4.90;2.92;;;29.90;99.90;;;;;;5054019;28;20281;-85
2023/06/15 09:01:07;;;;;;;5.15;3.50;;;30.10;99.90;;;;;;5045599;28;20232;-84
2023/06/15 09:03:35;;;;;;;5.85;3.13;;;29.90;99.90;;;;;;5034871;28;20289;-87
2023/06/15 09:06:02;;;;;;;4.80;3.15;;;29.90;99.90;;;;;;5034244;28;20221;-84
2023/06/15 09:08:29;;;;;;;5.53;3.13;;;29.90;99.90;;;;;;5034393;28;20778;-86
2023/06/15 09:11:08;;;;;;;4.70;2.97;;;29.80;99.90;;;;;;5052425;28;20206;-87
2023/06/15 09:13:35;;;;;;;7.88;2.83;;;29.50;99.90;;;;;;5054526;28;20480;-83
2023/06/15 09:16:05;;;;;;;6.53;2.80;;;29.70;99.90;;;;;;5054058;28;20278;-84
2023/06/15 09:18:43;;;;;;;6.97;3.22;;;29.70;99.90;;;;;;5054111;28;20206;-87
2023/06/15 09:21:13;;;;;;;6.25;2.88;;;29.80;99.90;;;;;;5054367;28;20616;-87
2023/06/15 09:23:42;;;;;;;4.25;2.88;;;29.70;99.90;;;;;;5054672;28;20198;-84
2023/06/15 09:26:20;;;;;;;6.85;2.47;;;30.00;99.90;;;;;;5053728;28;20228;-85
2023/06/15 09:28:47;;;;;;;3.28;2.40;;;30.30;99.90;;;;;;5054160;28;20380;-87
2023/06/15 09:31:29;;;;;;;2.85;2.45;;;30.50;99.90;;;;;;5053879;28;20245;-86
2023/06/15 09:34:06;;;;;;;3.70;2.50;;;30.50;99.90;;;;;;5054347;28;20209;-86
2023/06/15 09:36:39;;;;;;;2.65;2.30;;;30.60;99.90;;;;;;5054304;28;20271;-86
2023/06/15 09:39:09;;;;;;;8.00;2.78;;;30.50;99.90;;;;;;5053160;28;20573;-85
2023/06/15 09:41:50;;;;;;;3.33;2.50;;;30.80;99.90;;;;;;5053377;28;20206;-88
2023/06/15 09:44:19;;;;;;;4.53;2.78;;;31.20;99.90;;;;;;5053884;28;20248;-88
2023/06/15 09:46:48;;;;;;;7.60;2.95;;;31.30;99.90;;;;;;5053314;28;20609;-84
2023/06/15 09:49:21;;;;;;;4.28;2.45;;;31.10;99.90;;;;;;5053150;28;20289;-82
2023/06/15 09:51:50;;;;;;;3.75;2.47;;;31.10;99.90;;;;;;5053503;28;20212;-86
2023/06/15 09:54:20;;;;;;;7.07;2.75;;;31.00;99.90;;;;;;5053110;28;20209;-85
2023/06/15 09:56:50;;;;;;;9.80;3.08;;;30.70;99.90;;;;;;5053317;28;20198;-85
2023/06/15 09:59:18;;;;;;;4.28;2.63;;;30.60;99.90;;;;;;5053795;28;20224;-86
2023/06/15 10:01:47;;;;;;;3.65;2.50;;;30.60;99.90;;;;;;5057246;28;20204;-83
2023/06/15 10:04:15;;;;;;;4.03;2.53;;;30.60;99.90;;;;;;5057279;28;20202;-87
2023/06/15 10:06:45;;;;;;;4.28;2.78;;;30.70;99.90;;;;;;5057283;28;20194;-88
2023/06/15 10:09:17;;;;;;;3.17;2.60;;;30.90;99.90;;;;;;5056624;28;20308;-86
2023/06/15 10:11:46;;;;;;;4.85;2.30;;;31.00;99.90;;;;;;5056726;28;20202;-86
2023/06/15 10:14:22;;;;;;;2.70;2.20;;;31.20;99.90;;;;;;5056352;28;20205;-85
2023/06/15 10:16:57;;;;;;;3.88;2.22;;;31.10;99.90;;;;;;5056675;28;20213;-86
2023/06/15 10:19:26;;;;;;;3.67;2.55;;;31.10;99.90;;;;;;5056226;28;20229;-82
2023/06/15 10:21:55;;;;;;;3.60;2.50;;;31.20;99.90;;;;;;5056441;28;20218;-87
2023/06/15 10:24:25;;;;;;;6.97;2.88;;;31.20;99.90;;;;;;5056006;28;20209;-86
2023/06/15 10:26:52;;;;;;;4.25;2.55;;;31.40;99.90;;;;;;5057167;28;20202;-83
2023/06/15 10:29:26;;;;;;;4.72;2.50;;;31.20;99.90;;;;;;5056100;28;20209;-85
2023/06/15 10:32:03;;;;;;;6.35;2.75;;;31.10;99.90;;;;;;5057351;28;20336;-85
2023/06/15 10:34:38;;;;;;;4.68;2.38;;;31.00;99.90;;;;;;5057433;28;20618;-82
2023/06/15 10:37:12;;;;;;;5.50;2.63;;;31.00;99.90;;;;;;5058563;28;20232;-87
2023/06/15 10:39:44;;;;;;;3.85;2.30;;;31.00;99.90;;;;;;5060327;28;20224;-84
2023/06/15 10:42:13;;;;;;;3.05;2.30;;;30.90;99.90;;;;;;5059451;28;20308;-84
2023/06/15 10:44:42;;;;;;;5.03;2.22;;;30.90;99.90;;;;;;5058559;28;20202;-81
2023/06/15 10:47:10;;;;;;;6.20;2.70;;;30.50;99.90;;;;;;5058507;28;20652;-82
2023/06/15 10:49:37;;;;;;;3.22;2.13;;;30.50;99.90;;;;;;5059098;28;20261;-85
2023/06/15 10:52:05;;;;;;;3.45;2.47;;;30.50;99.90;;;;;;5060744;28;20226;-84
2023/06/15 10:54:32;;;;;;;4.10;2.35;;;30.80;99.90;;;;;;5057158;28;20606;-83
2023/06/15 10:56:59;;;;;;;5.40;2.70;;;31.20;99.90;;;;;;5057047;28;20232;-83
2023/06/15 10:59:42;;;;;;;4.28;3.20;;;31.50;99.90;;;;;;5056822;28;20237;-85
2023/06/15 11:02:45;;;;;;;2.90;2.58;;;31.00;99.90;;;;;;5056649;28;20593;-86
2023/06/15 11:05:14;;;;;;;2.85;2.20;;;30.70;99.90;;;;;;5057633;28;20200;-86
2023/06/15 11:07:43;;;;;;;6.68;2.63;;;30.80;99.90;;;;;;5062546;28;20214;-81
2023/06/15 11:10:14;;;;;;;4.60;2.45;;;30.70;99.90;;;;;;5057327;28;20217;-86
2023/06/15 11:12:42;;;;;;;3.83;2.42;;;30.70;99.90;;;;;;5070515;28;20213;-84
2023/06/15 11:15:13;;;;;;;2.97;2.67;;;31.00;99.90;;;;;;5058509;28;20200;-88
2023/06/15 11:17:59;;;;;;;5.25;2.80;;;31.20;99.90;;;;;;5060229;28;20560;-86
2023/06/15 11:20:43;;;;;;;2.83;2.33;;;31.50;99.90;;;;;;5058520;28;20570;-85
2023/06/15 11:23:11;;;;;;;3.17;2.30;;;31.90;99.90;;;;;;5057483;28;20210;-83
2023/06/15 11:25:38;;;;;;;4.63;2.28;;;32.00;99.90;;;;;;5057335;28;20225;-84
2023/06/15 11:28:06;;;;;;;6.97;3.08;;;32.10;99.90;;;;;;5058425;28;20232;-85
2023/06/15 11:30:35;;;;;;;3.05;2.50;;;32.30;99.90;;;;;;5056668;28;20209;-85
2023/06/15 11:33:02;;;;;;;5.57;2.45;;;32.30;99.90;;;;;;5058327;28;20225;-86
2023/06/15 11:35:31;;;;;;;3.65;2.25;;;32.00;99.90;;;;;;5051886;28;20213;-84
2023/06/15 11:37:58;;;;;;;3.38;2.53;;;31.50;99.90;;;;;;5054786;28;20202;-82
2023/06/15 11:40:25;;;;;;;4.13;2.33;;;31.50;99.90;;;;;;5054989;28;20297;-84
2023/06/15 11:42:53;;;;;;;6.38;2.70;;;31.30;99.90;;;;;;5055430;28;20577;-81
2023/06/15 11:45:23;;;;;;;3.55;2.45;;;31.20;99.90;;;;;;5054381;28;20208;-82
2023/06/15 11:47:52;;;;;;;5.07;2.80;;;31.20;99.90;;;;;;5055676;28;20198;-89
2023/06/15 11:50:22;;;;;;;6.78;2.45;;;30.80;99.90;;;;;;5054580;28;20213;-80
2023/06/15 11:52:49;;;;;;;4.05;2.58;;;30.80;99.90;;;;;;5055635;28;20606;-84
2023/06/15 11:55:17;;;;;;;3.58;2.13;;;30.90;99.90;;;;;;5054643;28;20202;-81
2023/06/15 11:57:44;;;;;;;6.18;2.63;;;31.10;99.90;;;;;;5054214;28;20193;-82
2023/06/15 12:00:13;;;;;;;5.80;2.72;;;31.20;99.90;;;;;;5053458;28;20247;-84
2023/06/15 12:02:41;;;;;;;5.68;2.53;;;31.00;99.90;;;;;;5054786;28;20225;-82
2023/06/15 12:05:12;;;;;;;5.53;2.67;;;30.90;99.90;;;;;;5054369;28;20845;-86
2023/06/15 12:07:39;;;;;;;4.18;2.90;;;30.70;99.90;;;;;;5054378;28;20212;-83
2023/06/15 12:10:11;;;;;;;5.15;2.63;;;30.40;99.90;;;;;;5055055;28;20269;-83
2023/06/15 12:12:38;;;;;;;6.05;2.42;;;30.10;99.90;;;;;;5055652;28;20240;-86
2023/06/15 12:15:07;;;;;;;6.00;2.83;;;29.80;99.90;;;;;;5037593;28;20236;-84
2023/06/15 12:17:36;;;;;;;7.50;2.90;;;29.60;99.90;;;;;;5035259;28;20205;-83
2023/06/15 12:20:08;;;;;;;3.50;2.67;;;29.40;99.90;;;;;;5047501;28;20212;-84
2023/06/15 12:22:44;;;;;;;8.63;2.38;;;29.40;99.90;;;;;;5034946;28;20223;-87
2023/06/15 12:25:12;;;;;;;4.20;2.60;;;29.60;99.90;;;;;;5035485;28;20195;-84
2023/06/15 12:27:42;;;;;;;4.82;2.53;;;29.50;99.90;;;;;;5046651;28;20202;-87
2023/06/15 12:30:13;;;;;;;5.68;2.58;;;29.20;99.90;;;;;;5054041;28;20491;-82
2023/06/15 12:32:44;;;;;;;4.53;2.92;;;28.80;99.90;;;;;;5054645;28;20629;-88
2023/06/15 12:35:32;;;;;;;5.53;3.03;;;28.70;99.90;;;;;;5054354;28;20558;-85
2023/06/15 12:38:00;;;;;;;6.60;2.90;;;28.60;99.90;;;;;;5053664;28;20198;-84
2023/06/15 12:40:27;;;;;;;3.95;2.72;;;28.80;99.90;;;;;;5046676;28;20202;-84
2023/06/15 12:42:59;;;;;;;6.57;3.05;;;29.10;99.90;;;;;;5040417;28;20276;-79
2023/06/15 12:45:26;;;;;;;3.95;2.70;;;29.00;99.90;;;;;;5044914;28;20213;-86
2023/06/15 12:47:53;;;;;;;4.13;2.63;;;29.00;99.90;;;;;;5042752;28;20281;-88
2023/06/15 12:50:20;;;;;;;3.13;2.67;;;29.10;99.90;;;;;;5041979;28;20681;-83
2023/06/15 12:52:47;;;;;;;4.32;2.72;;;29.10;99.90;;;;;;5044999;28;20201;-88
2023/06/15 12:55:15;;;;;;;4.78;2.83;;;29.10;99.90;;;;;;5043445;28;20202;-83